Time,TemperatureF,DewpointF,PressureIn,WindDirection,WindDirectionDegrees,WindSpeedMPH,WindSpeedGustMPH,Humidity,HourlyPrecipIn,Conditions,Clouds,dailyrainin,SoftwareType,DateUTC
2013-01-22 00:00:00,10.4,-1.4,30.25,WSW,257,0.0,12.0,58,0.00,,SCT035,0.00,VWS V14.01,2013-01-22 05:00:00,
2013-01-22 00:01:00,10.2,-1.6,30.25,West,278,0.0,12.0,58,0.00,,SCT036,0.00,VWS V14.01,2013-01-22 05:01:00,
2013-01-22 00:02:00,10.2,-1.6,30.25,West,278,0.0,12.0,58,0.00,,SCT036,0.00,VWS V14.01,2013-01-22 05:02:00,
2013-01-22 00:07:00,10.2,-1.6,30.25,West,264,5.0,9.0,58,0.00,,SCT036,0.00,VWS V14.01,2013-01-22 05:07:00,
2013-01-22 00:12:00,10.2,-1.6,30.25,West,265,0.0,13.0,58,0.00,,SCT036,0.00,VWS V14.01,2013-01-22 05:12:00,
2013-01-22 00:15:00,9.0,-3.9,30.26,WNW,295,0.0,18.0,55,0.00,,OVC100,0.00,VWS V14.01,2013-01-22 05:15:00,
2013-01-22 00:17:00,10.0,-1.8,30.25,WNW,291,0.0,12.0,58,0.00,,SCT036,0.00,VWS V14.01,2013-01-22 05:17:00,
2013-01-22 00:22:00,9.9,-1.9,30.25,NW,322,0.0,11.0,58,0.00,,SCT036,0.00,VWS V14.01,2013-01-22 05:22:00,
2013-01-22 00:27:00,9.9,-1.5,30.25,WNW,282,1.0,11.0,59,0.00,,SCT036,0.00,VWS V14.01,2013-01-22 05:27:00,
2013-01-22 00:30:00,8.8,-4.1,30.26,WSW,248,1.0,6.0,55,0.00,,OVC100,0.00,VWS V14.01,2013-01-22 05:30:00,
2013-01-22 00:32:00,9.7,-1.4,30.25,WNW,284,2.0,11.0,60,0.00,,BKN026,0.00,VWS V14.01,2013-01-22 05:32:00,
2013-01-22 00:37:00,9.7,-1.0,30.25,WSW,253,0.0,10.0,61,0.00,,BKN026,0.00,VWS V14.01,2013-01-22 05:37:00,
2013-01-22 00:42:00,9.5,-0.9,30.25,WSW,253,1.0,7.0,62,0.00,,BKN026,0.00,VWS V14.01,2013-01-22 05:42:00,
2013-01-22 00:45:00,8.6,-5.0,30.27,WNW,284,3.0,16.0,53,0.00,,OVC100,0.00,VWS V14.01,2013-01-22 05:45:00,
2013-01-22 00:47:00,9.3,-1.8,30.25,West,264,18.0,18.0,60,0.00,,SCT026,0.00,VWS V14.01,2013-01-22 05:47:00,
2013-01-22 00:52:00,9.2,-3.3,30.25,West,270,0.0,18.0,56,0.00,,SCT026,0.00,VWS V14.01,2013-01-22 05:52:00,
2013-01-22 00:57:00,9.2,-3.7,30.25,West,261,4.0,11.0,55,0.00,,SCT026,0.00,VWS V14.01,2013-01-22 05:57:00,
2013-01-22 01:00:00,8.6,-4.6,30.27,WSW,240,0.0,8.0,54,0.00,,OVC100,0.00,VWS V14.01,2013-01-22 06:00:00,
2013-01-22 01:02:00,9.2,-3.7,30.25,NW,305,6.0,11.0,55,0.00,,FEW031,0.00,VWS V14.01,2013-01-22 06:02:00,
2013-01-22 01:07:00,9.0,-3.9,30.25,WNW,284,1.0,10.0,55,0.00,,FEW031,0.00,VWS V14.01,2013-01-22 06:07:00,
2013-01-22 01:12:00,9.0,-3.9,30.25,West,274,8.0,18.0,55,0.00,,FEW031,0.00,VWS V14.01,2013-01-22 06:12:00,
2013-01-22 01:15:00,8.6,-3.9,30.28,WSW,244,6.0,8.0,56,0.00,,OVC100,0.00,VWS V14.01,2013-01-22 06:15:00,
2013-01-22 01:17:00,9.0,-3.9,30.26,WNW,302,0.0,18.0,55,0.00,,FEW031,0.00,VWS V14.01,2013-01-22 06:17:00,
2013-01-22 01:22:00,9.0,-3.9,30.26,West,274,0.0,6.0,55,0.00,,FEW031,0.00,VWS V14.01,2013-01-22 06:22:00,
2013-01-22 01:27:00,9.0,-3.9,30.26,WNW,287,0.0,6.0,55,0.00,,FEW031,0.00,VWS V14.01,2013-01-22 06:27:00,
2013-01-22 01:30:00,8.6,-3.1,30.28,West,275,0.0,6.0,58,0.00,,OVC100,0.00,VWS V14.01,2013-01-22 06:30:00,
2013-01-22 01:32:00,8.8,-4.1,30.26,West,264,0.0,6.0,55,0.00,,FEW031,0.00,VWS V14.01,2013-01-22 06:32:00,
2013-01-22 01:37:00,8.8,-4.4,30.26,WSW,239,10.0,10.0,54,0.00,,FEW031,0.00,VWS V14.01,2013-01-22 06:37:00,
2013-01-22 01:42:00,8.6,-4.6,30.27,WNW,282,0.0,16.0,54,0.00,,FEW031,0.00,VWS V14.01,2013-01-22 06:42:00,
2013-01-22 01:45:00,8.3,-3.1,30.28,WNW,289,0.0,10.0,59,0.00,,OVC100,0.00,VWS V14.01,2013-01-22 06:45:00,
2013-01-22 01:47:00,8.6,-5.0,30.27,West,268,2.0,16.0,53,0.00,,FEW031,0.00,VWS V14.01,2013-01-22 06:47:00,
2013-01-22 01:53:00,8.6,-5.0,30.27,West,272,2.0,11.0,53,0.00,,FEW031,0.00,VWS V14.01,2013-01-22 06:53:00,
2013-01-22 01:58:00,8.6,-4.6,30.27,SW,222,2.0,8.0,54,0.00,,FEW031,0.00,VWS V14.01,2013-01-22 06:58:00,
2013-01-22 02:00:00,8.3,-3.4,30.28,WSW,253,2.0,10.0,58,0.00,,OVC100,0.00,VWS V14.01,2013-01-22 07:00:00,
2013-01-22 02:03:00,8.6,-4.6,30.27,West,267,2.0,8.0,54,0.00,,BKN037,0.00,VWS V14.01,2013-01-22 07:03:00,
2013-01-22 02:08:00,8.6,-4.2,30.27,SSE,147,0.0,4.0,55,0.00,,BKN037,0.00,VWS V14.01,2013-01-22 07:08:00,
2013-01-22 02:13:00,8.6,-3.9,30.27,WSW,257,0.0,7.0,56,0.00,,BKN037,0.00,VWS V14.01,2013-01-22 07:13:00,
2013-01-22 02:15:00,8.1,-3.2,30.29,West,263,0.0,7.0,59,0.00,,OVC100,0.00,VWS V14.01,2013-01-22 07:15:00,
2013-01-22 02:18:00,8.6,-3.5,30.28,West,271,0.0,8.0,57,0.00,,BKN037,0.00,VWS V14.01,2013-01-22 07:18:00,
2013-01-22 02:23:00,8.6,-3.1,30.28,West,275,0.0,6.0,58,0.00,,BKN037,0.00,VWS V14.01,2013-01-22 07:23:00,
2013-01-22 02:28:00,8.6,-3.1,30.28,WNW,299,2.0,6.0,58,0.00,,BKN037,0.00,VWS V14.01,2013-01-22 07:28:00,
2013-01-22 02:30:00,7.9,-3.1,30.28,SW,217,0.0,6.0,60,0.00,,OVC100,0.00,VWS V14.01,2013-01-22 07:30:00,
2013-01-22 02:33:00,8.6,-2.8,30.28,WSW,246,5.0,8.0,59,0.00,,BKN037,0.00,VWS V14.01,2013-01-22 07:33:00,
2013-01-22 02:38:00,8.4,-3.0,30.28,WSW,247,3.0,10.0,59,0.00,,BKN037,0.00,VWS V14.01,2013-01-22 07:38:00,
2013-01-22 02:43:00,8.4,-3.0,30.28,WNW,285,0.0,10.0,59,0.00,,BKN037,0.00,VWS V14.01,2013-01-22 07:43:00,
2013-01-22 02:45:00,7.9,-3.1,30.28,West,267,0.0,11.0,60,0.00,,OVC100,0.00,VWS V14.01,2013-01-22 07:45:00,
2013-01-22 02:48:00,8.3,-3.1,30.28,WNW,291,0.0,6.0,59,0.00,,BKN037,0.00,VWS V14.01,2013-01-22 07:48:00,
2013-01-22 02:53:00,8.3,-3.4,30.28,WNW,301,6.0,10.0,58,0.00,,BKN037,0.00,VWS V14.01,2013-01-22 07:53:00,
2013-01-22 02:58:00,8.3,-3.4,30.28,WSW,254,1.0,10.0,58,0.00,,BKN037,0.00,VWS V14.01,2013-01-22 07:58:00,
2013-01-22 03:00:00,7.7,-2.9,30.28,West,264,0.0,6.0,61,0.00,,OVC100,0.00,VWS V14.01,2013-01-22 08:00:00,
2013-01-22 03:03:00,8.3,-3.1,30.28,WNW,291,5.0,8.0,59,0.00,,BKN036,0.00,VWS V14.01,2013-01-22 08:03:00,
2013-01-22 03:08:00,8.1,-3.2,30.28,WSW,254,1.0,8.0,59,0.00,,BKN036,0.00,VWS V14.01,2013-01-22 08:08:00,
2013-01-22 03:13:00,8.1,-3.2,30.29,West,263,0.0,7.0,59,0.00,,BKN036,0.00,VWS V14.01,2013-01-22 08:13:00,
2013-01-22 03:15:00,7.4,-2.9,30.29,West,275,0.0,6.0,62,0.00,,OVC100,0.00,VWS V14.01,2013-01-22 08:15:00,
2013-01-22 03:18:00,8.1,-3.2,30.29,West,275,1.0,7.0,59,0.00,,BKN036,0.00,VWS V14.01,2013-01-22 08:18:00,
2013-01-22 03:23:00,7.9,-3.4,30.29,WNW,288,0.0,9.0,59,0.00,,BKN036,0.00,VWS V14.01,2013-01-22 08:23:00,
2013-01-22 03:28:00,7.9,-3.1,30.29,West,278,0.0,7.0,60,0.00,,BKN036,0.00,VWS V14.01,2013-01-22 08:28:00,
2013-01-22 03:30:00,7.4,-2.5,30.29,West,270,0.0,7.0,63,0.00,,OVC100,0.00,VWS V14.01,2013-01-22 08:30:00,
2013-01-22 03:33:00,7.9,-3.1,30.28,WSW,243,1.0,5.0,60,0.00,,BKN036,0.00,VWS V14.01,2013-01-22 08:33:00,
2013-01-22 03:38:00,7.9,-3.1,30.28,WSW,243,1.0,8.0,60,0.00,,BKN036,0.00,VWS V14.01,2013-01-22 08:38:00,
2013-01-22 03:43:00,7.9,-3.1,30.29,West,265,0.0,11.0,60,0.00,,BKN036,0.00,VWS V14.01,2013-01-22 08:43:00,
2013-01-22 03:45:00,7.2,-2.4,30.29,WSW,243,0.0,3.0,64,0.00,,OVC100,0.00,VWS V14.01,2013-01-22 08:45:00,
2013-01-22 03:48:00,7.7,-2.9,30.28,SW,223,3.0,11.0,61,0.00,,BKN036,0.00,VWS V14.01,2013-01-22 08:48:00,
2013-01-22 03:53:00,7.7,-2.9,30.28,West,268,1.0,7.0,61,0.00,,BKN036,0.00,VWS V14.01,2013-01-22 08:53:00,
2013-01-22 03:58:00,7.7,-2.9,30.28,SW,216,0.0,6.0,61,0.00,,BKN036,0.00,VWS V14.01,2013-01-22 08:58:00,
2013-01-22 04:00:00,7.2,-2.4,30.29,WSW,247,0.0,5.0,64,0.00,,OVC100,0.00,VWS V14.01,2013-01-22 09:00:00,
2013-01-22 04:04:00,7.6,-3.0,30.28,WSW,251,0.0,6.0,61,0.00,,CLR,0.00,VWS V14.01,2013-01-22 09:04:00,
2013-01-22 04:09:00,7.6,-3.0,30.28,West,264,0.0,3.0,61,0.00,,CLR,0.00,VWS V14.01,2013-01-22 09:09:00,
2013-01-22 04:14:00,7.4,-2.9,30.29,West,260,0.0,6.0,62,0.00,,CLR,0.00,VWS V14.01,2013-01-22 09:14:00,
2013-01-22 04:15:00,7.2,-3.1,30.30,West,272,0.0,8.0,62,0.00,,OVC100,0.00,VWS V14.01,2013-01-22 09:15:00,
2013-01-22 04:19:00,7.4,-2.9,30.29,SW,234,0.0,11.0,62,0.00,,CLR,0.00,VWS V14.01,2013-01-22 09:19:00,
2013-01-22 04:24:00,7.4,-2.9,30.29,WNW,284,0.0,11.0,62,0.00,,CLR,0.00,VWS V14.01,2013-01-22 09:24:00,
2013-01-22 04:29:00,7.4,-2.5,30.29,West,272,0.0,7.0,63,0.00,,CLR,0.00,VWS V14.01,2013-01-22 09:29:00,
2013-01-22 04:30:00,7.2,-3.1,30.30,West,278,0.0,5.0,62,0.00,,OVC100,0.00,VWS V14.01,2013-01-22 09:30:00,
2013-01-22 04:34:00,7.4,-2.5,30.29,West,260,5.0,7.0,63,0.00,,CLR,0.00,VWS V14.01,2013-01-22 09:34:00,
2013-01-22 04:39:00,7.2,-2.7,30.29,WSW,253,1.0,7.0,63,0.00,,CLR,0.00,VWS V14.01,2013-01-22 09:39:00,
2013-01-22 04:44:00,7.2,-2.7,30.29,SW,233,0.0,3.0,63,0.00,,CLR,0.00,VWS V14.01,2013-01-22 09:44:00,
2013-01-22 04:45:00,7.0,-3.3,30.31,SW,236,0.0,7.0,62,0.00,,OVC100,0.00,VWS V14.01,2013-01-22 09:45:00,
2013-01-22 04:49:00,7.2,-2.4,30.29,WSW,244,0.0,6.0,64,0.00,,CLR,0.00,VWS V14.01,2013-01-22 09:49:00,
2013-01-22 04:54:00,7.2,-2.4,30.29,SSW,192,0.0,6.0,64,0.00,,CLR,0.00,VWS V14.01,2013-01-22 09:54:00,
2013-01-22 04:59:00,7.2,-2.4,30.29,WSW,247,0.0,5.0,64,0.00,,CLR,0.00,VWS V14.01,2013-01-22 09:59:00,
2013-01-22 05:00:00,6.9,-3.0,30.32,SW,217,0.0,7.0,63,0.00,,OVC100,0.00,VWS V14.01,2013-01-22 10:00:00,
2013-01-22 05:04:00,7.2,-2.4,30.29,West,263,2.0,10.0,64,0.00,,CLR,0.00,VWS V14.01,2013-01-22 10:04:00,
2013-01-22 05:09:00,7.2,-2.7,30.30,WNW,285,0.0,12.0,63,0.00,,CLR,0.00,VWS V14.01,2013-01-22 10:09:00,
2013-01-22 05:14:00,7.2,-3.1,30.30,West,268,1.0,8.0,62,0.00,,CLR,0.00,VWS V14.01,2013-01-22 10:14:00,
2013-01-22 05:15:00,6.7,-3.2,30.33,West,267,3.0,7.0,63,0.00,,OVC100,0.00,VWS V14.01,2013-01-22 10:15:00,
2013-01-22 05:19:00,7.2,-3.1,30.30,WNW,299,0.0,8.0,62,0.00,,CLR,0.00,VWS V14.01,2013-01-22 10:19:00,
2013-01-22 05:24:00,7.2,-3.1,30.30,WNW,289,0.0,5.0,62,0.00,,CLR,0.00,VWS V14.01,2013-01-22 10:24:00,
2013-01-22 05:29:00,7.2,-3.1,30.30,West,278,0.0,5.0,62,0.00,,CLR,0.00,VWS V14.01,2013-01-22 10:29:00,
2013-01-22 05:30:00,6.5,-3.7,30.33,West,267,1.0,8.0,62,0.00,,OVC100,0.00,VWS V14.01,2013-01-22 10:30:00,
2013-01-22 05:34:00,7.0,-3.3,30.30,WSW,257,0.0,6.0,62,0.00,,CLR,0.00,VWS V14.01,2013-01-22 10:34:00,
2013-01-22 05:39:00,7.0,-3.3,30.30,West,280,2.0,6.0,62,0.00,,CLR,0.00,VWS V14.01,2013-01-22 10:39:00,
2013-01-22 05:44:00,7.0,-3.3,30.31,WSW,247,5.0,7.0,62,0.00,,CLR,0.00,VWS V14.01,2013-01-22 10:44:00,
2013-01-22 05:45:00,6.5,-3.4,30.33,West,268,0.0,6.0,63,0.00,,OVC100,0.00,VWS V14.01,2013-01-22 10:45:00,
2013-01-22 05:49:00,7.0,-2.9,30.31,WSW,248,0.0,7.0,63,0.00,,CLR,0.00,VWS V14.01,2013-01-22 10:49:00,
2013-01-22 05:54:00,6.9,-3.0,30.31,West,280,0.0,7.0,63,0.00,,CLR,0.00,VWS V14.01,2013-01-22 10:54:00,
2013-01-22 05:59:00,6.9,-3.0,30.32,SW,216,0.0,7.0,63,0.00,,CLR,0.00,VWS V14.01,2013-01-22 10:59:00,
2013-01-22 06:00:00,6.5,-3.4,30.33,WNW,294,1.0,7.0,63,0.00,,OVC100,0.00,VWS V14.01,2013-01-22 11:00:00,
2013-01-22 06:04:00,6.9,-3.0,30.32,SW,234,0.0,5.0,63,0.00,,CLR,0.00,VWS V14.01,2013-01-22 11:04:00,
2013-01-22 06:09:00,6.9,-3.0,30.32,WSW,257,0.0,5.0,63,0.00,,CLR,0.00,VWS V14.01,2013-01-22 11:09:00,
2013-01-22 06:14:00,6.7,-3.2,30.33,SSW,213,1.0,7.0,63,0.00,,CLR,0.00,VWS V14.01,2013-01-22 11:14:00,
2013-01-22 06:15:00,6.3,-3.9,30.34,NW,315,2.0,7.0,62,0.00,,OVC100,0.00,VWS V14.01,2013-01-22 11:15:00,
2013-01-22 06:19:00,6.7,-3.2,30.33,West,270,2.0,7.0,63,0.00,,CLR,0.00,VWS V14.01,2013-01-22 11:19:00,
2013-01-22 06:24:00,6.7,-3.2,30.33,WNW,285,0.0,3.0,63,0.00,,CLR,0.00,VWS V14.01,2013-01-22 11:24:00,
2013-01-22 06:29:00,6.5,-3.7,30.33,West,271,0.0,8.0,62,0.00,,CLR,0.00,VWS V14.01,2013-01-22 11:29:00,
2013-01-22 06:30:00,6.1,-4.1,30.35,WNW,284,0.0,6.0,62,0.00,,OVC100,0.00,VWS V14.01,2013-01-22 11:30:00,
2013-01-22 06:34:00,6.5,-3.7,30.33,West,277,1.0,8.0,62,0.00,,CLR,0.00,VWS V14.01,2013-01-22 11:34:00,
2013-01-22 06:39:00,6.5,-3.4,30.33,West,274,2.0,6.0,63,0.00,,CLR,0.00,VWS V14.01,2013-01-22 11:39:00,
2013-01-22 06:44:00,6.5,-3.4,30.33,West,268,0.0,6.0,63,0.00,,CLR,0.00,VWS V14.01,2013-01-22 11:44:00,
2013-01-22 06:45:00,6.1,-4.1,30.36,WSW,239,2.0,7.0,62,0.00,,OVC100,0.00,VWS V14.01,2013-01-22 11:45:00,
2013-01-22 06:49:00,6.5,-3.4,30.33,WNW,291,0.0,7.0,63,0.00,,CLR,0.00,VWS V14.01,2013-01-22 11:49:00,
2013-01-22 06:54:00,6.5,-3.4,30.33,SW,227,1.0,7.0,63,0.00,,CLR,0.00,VWS V14.01,2013-01-22 11:54:00,
2013-01-22 07:00:00,6.5,-3.4,30.33,WNW,302,2.0,7.0,63,0.00,,CLR,0.00,VWS V14.01,2013-01-22 12:00:00,
2013-01-22 07:05:00,6.3,-3.9,30.34,NW,312,1.0,7.0,62,0.00,,CLR,0.00,VWS V14.01,2013-01-22 12:05:00,
2013-01-22 07:10:00,6.3,-3.9,30.34,WSW,244,0.0,5.0,62,0.00,,CLR,0.00,VWS V14.01,2013-01-22 12:10:00,
2013-01-22 07:15:00,6.3,-3.9,30.34,NW,315,2.0,7.0,62,0.00,,CLR,0.00,VWS V14.01,2013-01-22 12:15:00,
2013-01-22 07:20:00,6.3,-3.9,30.35,WNW,301,0.0,7.0,62,0.00,,CLR,0.00,VWS V14.01,2013-01-22 12:20:00,
2013-01-22 07:25:00,6.1,-4.1,30.35,West,280,2.0,6.0,62,0.00,,CLR,0.00,VWS V14.01,2013-01-22 12:25:00,
2013-01-22 07:30:00,6.1,-4.1,30.35,WNW,284,0.0,6.0,62,0.00,,CLR,0.00,VWS V14.01,2013-01-22 12:30:00,
2013-01-22 07:35:00,6.1,-4.1,30.35,SW,226,0.0,6.0,62,0.00,,CLR,0.00,VWS V14.01,2013-01-22 12:35:00,
2013-01-22 07:40:00,6.1,-4.1,30.35,SW,233,1.0,7.0,62,0.00,,CLR,0.00,VWS V14.01,2013-01-22 12:40:00,
2013-01-22 07:45:00,6.1,-4.1,30.36,WSW,248,3.0,7.0,62,0.00,,CLR,0.00,VWS V14.01,2013-01-22 12:45:00,
2013-01-22 07:50:00,6.1,-4.1,30.36,West,265,0.0,6.0,62,0.00,,CLR,0.00,VWS V14.01,2013-01-22 12:50:00,
2013-01-22 07:55:00,6.1,-4.1,30.36,West,272,2.0,4.0,62,0.00,,CLR,0.00,VWS V14.01,2013-01-22 12:55:00,
2013-01-22 08:00:00,6.1,-4.1,30.36,West,275,0.0,7.0,62,0.00,,CLR,0.00,VWS V14.01,2013-01-22 13:00:00,
2013-01-22 08:05:00,6.1,-4.1,30.37,West,271,3.0,7.0,62,0.00,,CLR,0.00,VWS V14.01,2013-01-22 13:05:00,
2013-01-22 08:10:00,6.1,-4.1,30.37,West,264,1.0,10.0,62,0.00,,CLR,0.00,VWS V14.01,2013-01-22 13:10:00,
2013-01-22 08:15:00,6.3,-3.9,30.37,WNW,285,0.0,7.0,62,0.00,,CLR,0.00,VWS V14.01,2013-01-22 13:15:00,
2013-01-22 08:20:00,6.5,-3.7,30.37,NW,320,1.0,7.0,62,0.00,,CLR,0.00,VWS V14.01,2013-01-22 13:20:00,
2013-01-22 08:25:00,6.7,-3.5,30.38,WNW,301,0.0,8.0,62,0.00,,CLR,0.00,VWS V14.01,2013-01-22 13:25:00,
2013-01-22 08:30:00,7.2,-2.7,30.37,WNW,295,1.0,8.0,63,0.00,,CLR,0.00,VWS V14.01,2013-01-22 13:30:00,
2013-01-22 08:35:00,7.6,-2.7,30.38,WSW,258,3.0,6.0,62,0.00,,CLR,0.00,VWS V14.01,2013-01-22 13:35:00,
2013-01-22 08:41:00,7.7,-2.6,30.38,WNW,285,1.0,6.0,62,0.00,,CLR,0.00,VWS V14.01,2013-01-22 13:41:00,
2013-01-22 08:45:00,9.3,-2.1,30.41,SW,226,4.0,11.0,59,0.00,,OVC100,0.00,VWS V14.01,2013-01-22 13:45:00,
2013-01-22 08:46:00,7.9,-2.4,30.38,WNW,289,3.0,3.0,62,0.00,,CLR,0.00,VWS V14.01,2013-01-22 13:46:00,
2013-01-22 08:51:00,7.9,-2.4,30.38,WNW,299,7.0,7.0,62,0.00,,CLR,0.00,VWS V14.01,2013-01-22 13:51:00,
2013-01-22 08:56:00,8.1,-2.2,30.38,West,275,10.0,10.0,62,0.00,,CLR,0.00,VWS V14.01,2013-01-22 13:56:00,
2013-01-22 09:00:00,9.2,-1.9,30.41,WNW,291,0.0,5.0,60,0.00,,OVC100,0.00,VWS V14.01,2013-01-22 14:00:00,
2013-01-22 09:01:00,8.4,-2.3,30.38,West,275,2.0,11.0,61,0.00,,SCT026,0.00,VWS V14.01,2013-01-22 14:01:00,
2013-01-22 09:06:00,8.4,-1.9,30.39,WSW,248,2.0,8.0,62,0.00,,SCT026,0.00,VWS V14.01,2013-01-22 14:06:00,
2013-01-22 09:11:00,8.4,-2.3,30.39,WNW,282,2.0,8.0,61,0.00,,SCT026,0.00,VWS V14.01,2013-01-22 14:11:00,
2013-01-22 09:15:00,9.3,-2.1,30.42,West,275,1.0,6.0,59,0.00,,OVC100,0.00,VWS V14.01,2013-01-22 14:15:00,
2013-01-22 09:16:00,8.4,-2.3,30.40,WSW,257,3.0,8.0,61,0.00,,BKN024,0.00,VWS V14.01,2013-01-22 14:16:00,
2013-01-22 09:21:00,8.6,-2.4,30.40,West,263,1.0,10.0,60,0.00,,BKN024,0.00,VWS V14.01,2013-01-22 14:21:00,
2013-01-22 09:26:00,9.2,-1.5,30.40,West,265,0.0,8.0,61,0.00,,BKN024,0.00,VWS V14.01,2013-01-22 14:26:00,
2013-01-22 09:30:00,10.0,-2.2,30.42,WNW,285,6.0,11.0,57,0.00,,OVC100,0.00,VWS V14.01,2013-01-22 14:30:00,
2013-01-22 09:32:00,10.2,-0.6,30.40,SW,227,0.0,7.0,61,0.00,,BKN024,0.00,VWS V14.01,2013-01-22 14:32:00,
2013-01-22 09:37:00,10.0,-1.8,30.40,SW,215,0.0,8.0,58,0.00,,BKN024,0.00,VWS V14.01,2013-01-22 14:37:00,
2013-01-22 09:42:00,9.7,-2.1,30.41,SW,233,7.0,11.0,58,0.00,,BKN024,0.00,VWS V14.01,2013-01-22 14:42:00,
2013-01-22 09:45:00,10.0,-2.9,30.42,West,261,1.0,8.0,55,0.00,,OVC100,0.00,VWS V14.01,2013-01-22 14:45:00,
2013-01-22 09:47:00,9.2,-2.6,30.41,WNW,294,3.0,11.0,58,0.00,,BKN024,0.00,VWS V14.01,2013-01-22 14:47:00,
2013-01-22 09:52:00,9.0,-2.0,30.41,West,275,1.0,16.0,60,0.00,,BKN024,0.00,VWS V14.01,2013-01-22 14:52:00,
2013-01-22 09:57:00,9.2,-1.9,30.41,WNW,288,1.0,6.0,60,0.00,,BKN024,0.00,VWS V14.01,2013-01-22 14:57:00,
2013-01-22 10:00:00,10.0,-2.5,30.42,West,268,7.0,10.0,56,0.00,,OVC100,0.00,VWS V14.01,2013-01-22 15:00:00,
2013-01-22 10:02:00,9.0,-2.4,30.41,WNW,282,2.0,6.0,59,0.00,,BKN024,0.00,VWS V14.01,2013-01-22 15:02:00,
2013-01-22 10:07:00,9.0,-2.4,30.41,WNW,298,1.0,11.0,59,0.00,,BKN024,0.00,VWS V14.01,2013-01-22 15:07:00,
2013-01-22 10:12:00,9.0,-2.4,30.42,WNW,284,1.0,6.0,59,0.00,,BKN024,0.00,VWS V14.01,2013-01-22 15:12:00,
2013-01-22 10:15:00,10.5,-3.6,30.42,NNW,337,1.0,9.0,52,0.00,,OVC100,0.00,VWS V14.01,2013-01-22 15:15:00,
2013-01-22 10:17:00,9.7,-1.7,30.42,WNW,288,4.0,6.0,59,0.00,,BKN024,0.00,VWS V14.01,2013-01-22 15:17:00,
2013-01-22 10:22:00,9.9,-2.3,30.42,WNW,284,2.0,10.0,57,0.00,,BKN024,0.00,VWS V14.01,2013-01-22 15:22:00,
2013-01-22 10:27:00,10.0,-1.8,30.42,WSW,237,1.0,6.0,58,0.00,,BKN024,0.00,VWS V14.01,2013-01-22 15:27:00,
2013-01-22 10:30:00,10.9,-2.9,30.42,WSW,257,5.0,7.0,53,0.00,,OVC100,0.00,VWS V14.01,2013-01-22 15:30:00,
2013-01-22 10:33:00,9.9,-2.7,30.42,West,281,2.0,11.0,56,0.00,,BKN024,0.00,VWS V14.01,2013-01-22 15:33:00,
2013-01-22 10:38:00,9.9,-2.7,30.42,WNW,285,0.0,10.0,56,0.00,,BKN024,0.00,VWS V14.01,2013-01-22 15:38:00,
2013-01-22 10:43:00,10.2,-2.4,30.42,WSW,256,2.0,8.0,56,0.00,,BKN024,0.00,VWS V14.01,2013-01-22 15:43:00,
2013-01-22 10:45:00,10.4,-3.3,30.41,SW,234,0.0,6.0,53,0.00,,OVC100,0.00,VWS V14.01,2013-01-22 15:45:00,
2013-01-22 10:48:00,9.9,-3.0,30.42,NW,306,0.0,8.0,55,0.00,,BKN024,0.00,VWS V14.01,2013-01-22 15:48:00,
2013-01-22 10:53:00,9.7,-3.2,30.42,West,281,5.0,5.0,55,0.00,,BKN024,0.00,VWS V14.01,2013-01-22 15:53:00,
2013-01-22 10:58:00,9.7,-2.8,30.42,NW,309,0.0,5.0,56,0.00,,BKN024,0.00,VWS V14.01,2013-01-22 15:58:00,
2013-01-22 11:00:00,12.4,-1.1,30.40,West,280,2.0,10.0,54,0.00,,OVC100,0.00,VWS V14.01,2013-01-22 16:00:00,
2013-01-22 11:03:00,10.5,-2.1,30.42,West,278,2.0,10.0,56,0.00,,BKN033,0.00,VWS V14.01,2013-01-22 16:03:00,
2013-01-22 11:08:00,10.7,-3.0,30.42,West,280,9.0,10.0,53,0.00,,BKN033,0.00,VWS V14.01,2013-01-22 16:08:00,
2013-01-22 11:13:00,10.7,-3.0,30.42,West,265,0.0,9.0,53,0.00,,BKN033,0.00,VWS V14.01,2013-01-22 16:13:00,
2013-01-22 11:15:00,12.3,-2.0,30.40,WNW,289,0.0,8.0,52,0.00,,OVC100,0.00,VWS V14.01,2013-01-22 16:15:00,
2013-01-22 11:18:00,10.4,-3.7,30.42,NW,313,0.0,6.0,52,0.00,,BKN033,0.00,VWS V14.01,2013-01-22 16:18:00,
2013-01-22 11:23:00,10.7,-2.3,30.42,West,267,1.0,5.0,55,0.00,,BKN033,0.00,VWS V14.01,2013-01-22 16:23:00,
2013-01-22 11:28:00,10.9,-2.9,30.42,West,277,0.0,7.0,53,0.00,,BKN033,0.00,VWS V14.01,2013-01-22 16:28:00,
2013-01-22 11:30:00,12.4,-3.1,30.39,SW,220,5.0,11.0,49,0.00,,OVC100,0.00,VWS V14.01,2013-01-22 16:30:00,
2013-01-22 11:33:00,10.7,-3.5,30.42,West,280,1.0,7.0,52,0.00,,BKN033,0.00,VWS V14.01,2013-01-22 16:33:00,
2013-01-22 11:38:00,10.4,-3.7,30.42,West,264,0.0,4.0,52,0.00,,BKN033,0.00,VWS V14.01,2013-01-22 16:38:00,
2013-01-22 11:43:00,10.4,-3.7,30.41,WSW,243,0.0,6.0,52,0.00,,BKN033,0.00,VWS V14.01,2013-01-22 16:43:00,
2013-01-22 11:45:00,13.8,-2.2,30.38,WNW,284,4.0,7.0,48,0.00,,OVC100,0.00,VWS V14.01,2013-01-22 16:45:00,
2013-01-22 11:48:00,10.9,-3.3,30.41,West,261,3.0,5.0,52,0.00,,BKN031,0.00,VWS V14.01,2013-01-22 16:48:00,
2013-01-22 11:53:00,11.6,-2.6,30.41,WSW,248,2.0,10.0,52,0.00,,BKN031,0.00,VWS V14.01,2013-01-22 16:53:00,
2013-01-22 11:58:00,12.3,-1.6,30.41,NW,323,1.0,10.0,53,0.00,,BKN031,0.00,VWS V14.01,2013-01-22 16:58:00,
2013-01-22 12:00:00,13.8,-3.1,30.38,NNW,340,4.0,13.0,46,0.00,,OVC100,0.00,VWS V14.01,2013-01-22 17:00:00,
2013-01-22 12:03:00,12.9,-1.8,30.40,WNW,284,0.0,8.0,51,0.00,,OVC031,0.00,VWS V14.01,2013-01-22 17:03:00,
2013-01-22 12:08:00,12.8,-1.5,30.40,WSW,257,6.0,7.0,52,0.00,,OVC031,0.00,VWS V14.01,2013-01-22 17:08:00,
2013-01-22 12:13:00,12.4,-1.9,30.40,NW,315,4.0,8.0,52,0.00,,OVC031,0.00,VWS V14.01,2013-01-22 17:13:00,
2013-01-22 12:15:00,13.5,-3.0,30.37,SSW,200,0.0,7.0,47,0.00,,OVC100,0.00,VWS V14.01,2013-01-22 17:15:00,
2013-01-22 12:18:00,12.3,-2.0,30.40,WNW,284,10.0,10.0,52,0.00,,BKN033,0.00,VWS V14.01,2013-01-22 17:18:00,
2013-01-22 12:23:00,12.8,-2.3,30.40,WSW,254,4.0,10.0,50,0.00,,BKN033,0.00,VWS V14.01,2013-01-22 17:23:00,
2013-01-22 12:28:00,12.6,-3.4,30.40,WSW,253,0.0,11.0,48,0.00,,BKN033,0.00,VWS V14.01,2013-01-22 17:28:00,
2013-01-22 12:30:00,14.4,-2.6,30.37,West,275,4.0,14.0,46,0.00,,OVC100,0.00,VWS V14.01,2013-01-22 17:30:00,
2013-01-22 12:33:00,12.6,-3.4,30.39,SW,226,7.0,12.0,48,0.00,,SCT028,0.00,VWS V14.01,2013-01-22 17:33:00,
2013-01-22 12:38:00,12.6,-3.8,30.39,West,277,3.0,12.0,47,0.00,,SCT028,0.00,VWS V14.01,2013-01-22 17:38:00,
2013-01-22 12:44:00,13.6,-2.0,30.39,WNW,301,3.0,7.0,49,0.00,,SCT028,0.00,VWS V14.01,2013-01-22 17:44:00,
2013-01-22 12:45:00,14.6,-2.4,30.36,West,275,3.0,11.0,46,0.00,,OVC100,0.00,VWS V14.01,2013-01-22 17:45:00,
2013-01-22 12:49:00,14.3,-1.4,30.38,WNW,289,1.0,7.0,49,0.00,,SCT028,0.00,VWS V14.01,2013-01-22 17:49:00,
2013-01-22 12:54:00,14.3,-2.7,30.38,WNW,288,5.0,12.0,46,0.00,,SCT028,0.00,VWS V14.01,2013-01-22 17:54:00,
2013-01-22 12:59:00,13.8,-3.1,30.38,West,263,0.0,13.0,46,0.00,,SCT028,0.00,VWS V14.01,2013-01-22 17:59:00,
2013-01-22 13:00:00,14.9,-3.1,30.35,WSW,251,0.0,11.0,44,0.00,,OVC100,0.00,VWS V14.01,2013-01-22 18:00:00,
2013-01-22 13:04:00,14.3,-1.8,30.38,WNW,288,2.0,14.0,48,0.00,,BKN037,0.00,VWS V14.01,2013-01-22 18:04:00,
2013-01-22 13:09:00,14.0,-2.5,30.38,WSW,248,1.0,14.0,47,0.00,,BKN037,0.00,VWS V14.01,2013-01-22 18:09:00,
2013-01-22 13:14:00,13.6,-2.4,30.37,West,272,1.0,7.0,48,0.00,,BKN037,0.00,VWS V14.01,2013-01-22 18:14:00,
2013-01-22 13:15:00,15.9,-3.1,30.35,SW,216,3.0,11.0,42,0.00,,OVC100,0.00,VWS V14.01,2013-01-22 18:15:00,
2013-01-22 13:19:00,13.5,-2.5,30.37,WSW,247,2.0,6.0,48,0.00,,BKN037,0.00,VWS V14.01,2013-01-22 18:19:00,
2013-01-22 13:24:00,13.5,-3.0,30.37,NW,308,1.0,7.0,47,0.00,,BKN037,0.00,VWS V14.01,2013-01-22 18:24:00,
2013-01-22 13:29:00,14.3,-2.7,30.37,NW,308,5.0,14.0,46,0.00,,BKN037,0.00,VWS V14.01,2013-01-22 18:29:00,
2013-01-22 13:30:00,16.5,-2.6,30.35,NW,319,0.0,8.0,42,0.00,,OVC100,0.00,VWS V14.01,2013-01-22 18:30:00,
2013-01-22 13:34:00,15.2,-2.3,30.37,NW,305,3.0,11.0,45,0.00,,BKN037,0.00,VWS V14.01,2013-01-22 18:34:00,
2013-01-22 13:39:00,15.1,-3.4,30.36,WSW,257,0.0,11.0,43,0.00,,BKN037,0.00,VWS V14.01,2013-01-22 18:39:00,
2013-01-22 13:44:00,14.6,-2.4,30.36,West,275,1.0,11.0,46,0.00,,BKN037,0.00,VWS V14.01,2013-01-22 18:44:00,
2013-01-22 13:45:00,16.2,-2.8,30.34,SSW,198,11.0,14.0,42,0.00,,OVC100,0.00,VWS V14.01,2013-01-22 18:45:00,
2013-01-22 13:49:00,14.1,-2.9,30.36,WNW,287,10.0,10.0,46,0.00,,BKN037,0.00,VWS V14.01,2013-01-22 18:49:00,
2013-01-22 13:54:00,14.0,-3.0,30.36,West,278,1.0,10.0,46,0.00,,BKN037,0.00,VWS V14.01,2013-01-22 18:54:00,
2013-01-22 13:59:00,14.9,-3.1,30.35,WSW,248,2.0,11.0,44,0.00,,BKN037,0.00,VWS V14.01,2013-01-22 18:59:00,
2013-01-22 14:00:00,16.2,-3.3,30.35,WSW,243,0.0,12.0,41,0.00,,OVC100,0.00,VWS V14.01,2013-01-22 19:00:00,
2013-01-22 14:04:00,15.9,-1.7,30.35,West,270,0.0,7.0,45,0.00,,BKN037,0.00,VWS V14.01,2013-01-22 19:04:00,
2013-01-22 14:09:00,15.7,-3.3,30.35,West,267,8.0,11.0,42,0.00,,BKN037,0.00,VWS V14.01,2013-01-22 19:09:00,
2013-01-22 14:14:00,15.9,-3.1,30.35,SSW,202,4.0,11.0,42,0.00,,BKN037,0.00,VWS V14.01,2013-01-22 19:14:00,
2013-01-22 14:15:00,16.1,-2.9,30.35,WSW,244,3.0,11.0,42,0.00,,OVC100,0.00,VWS V14.01,2013-01-22 19:15:00,
2013-01-22 14:19:00,16.4,-2.7,30.35,West,281,0.0,7.0,42,0.00,,BKN037,0.00,VWS V14.01,2013-01-22 19:19:00,
2013-01-22 14:24:00,16.4,-2.7,30.35,SW,230,1.0,8.0,42,0.00,,BKN037,0.00,VWS V14.01,2013-01-22 19:24:00,
2013-01-22 14:29:00,16.5,-2.6,30.35,West,280,2.0,8.0,42,0.00,,BKN037,0.00,VWS V14.01,2013-01-22 19:29:00,
2013-01-22 14:30:00,16.5,-3.1,30.36,WNW,284,3.0,11.0,41,0.00,,OVC100,0.00,VWS V14.01,2013-01-22 19:30:00,
2013-01-22 14:34:00,16.7,-1.9,30.35,WSW,244,3.0,8.0,43,0.00,,BKN037,0.00,VWS V14.01,2013-01-22 19:34:00,
2013-01-22 14:39:00,16.5,-2.6,30.35,NW,313,3.0,12.0,42,0.00,,BKN037,0.00,VWS V14.01,2013-01-22 19:39:00,
2013-01-22 14:44:00,16.4,-2.7,30.34,SW,216,5.0,14.0,42,0.00,,BKN037,0.00,VWS V14.01,2013-01-22 19:44:00,
2013-01-22 14:45:00,15.6,-2.9,30.36,WSW,251,7.0,11.0,43,0.00,,OVC100,0.00,VWS V14.01,2013-01-22 19:45:00,
2013-01-22 14:49:00,16.2,-2.4,30.34,WSW,243,6.0,14.0,43,0.00,,BKN037,0.00,VWS V14.01,2013-01-22 19:49:00,
2013-01-22 14:54:00,16.2,-2.4,30.35,West,264,11.0,12.0,43,0.00,,BKN037,0.00,VWS V14.01,2013-01-22 19:54:00,
2013-01-22 14:59:00,16.2,-3.3,30.35,SW,236,1.0,12.0,41,0.00,,BKN037,0.00,VWS V14.01,2013-01-22 19:59:00,
2013-01-22 15:00:00,15.7,-2.8,30.36,WNW,284,4.0,10.0,43,0.00,,OVC100,0.00,VWS V14.01,2013-01-22 20:00:00,
2013-01-22 15:05:00,16.2,-2.8,30.35,WSW,239,5.0,11.0,42,0.00,,FEW040,0.00,VWS V14.01,2013-01-22 20:05:00,
2013-01-22 15:10:00,15.7,-3.3,30.35,West,260,2.0,11.0,42,0.00,,FEW040,0.00,VWS V14.01,2013-01-22 20:10:00,
2013-01-22 15:15:00,16.1,-2.9,30.35,NW,311,1.0,11.0,42,0.00,,FEW040,0.00,VWS V14.01,2013-01-22 20:15:00,
2013-01-22 15:20:00,16.2,-2.4,30.35,NNW,335,1.0,11.0,43,0.00,,FEW040,0.00,VWS V14.01,2013-01-22 20:20:00,
2013-01-22 15:25:00,16.7,-2.4,30.36,WNW,291,7.0,11.0,42,0.00,,FEW040,0.00,VWS V14.01,2013-01-22 20:25:00,
2013-01-22 15:30:00,16.5,-3.1,30.36,West,270,2.0,11.0,41,0.00,,FEW040,0.00,VWS V14.01,2013-01-22 20:30:00,
2013-01-22 15:35:00,16.5,-3.1,30.36,WNW,284,1.0,14.0,41,0.00,,FEW040,0.00,VWS V14.01,2013-01-22 20:35:00,
2013-01-22 15:40:00,16.1,-2.9,30.36,WNW,301,9.0,14.0,42,0.00,,FEW040,0.00,VWS V14.01,2013-01-22 20:40:00,
2013-01-22 15:45:00,15.6,-2.9,30.36,West,270,1.0,11.0,43,0.00,,FEW040,0.00,VWS V14.01,2013-01-22 20:45:00,
2013-01-22 15:50:00,15.9,-2.6,30.36,WSW,246,1.0,11.0,43,0.00,,FEW040,0.00,VWS V14.01,2013-01-22 20:50:00,
2013-01-22 15:55:00,15.4,-3.1,30.37,West,274,1.0,11.0,43,0.00,,FEW040,0.00,VWS V14.01,2013-01-22 20:55:00,
2013-01-22 16:00:00,15.7,-2.8,30.36,West,263,3.0,7.0,43,0.00,,FEW040,0.00,VWS V14.01,2013-01-22 21:00:00,
2013-01-22 16:05:00,15.9,-3.1,30.37,WSW,253,0.0,11.0,42,0.00,,SCT045,0.00,VWS V14.01,2013-01-22 21:05:00,
2013-01-22 16:10:00,15.9,-3.1,30.36,WNW,287,3.0,12.0,42,0.00,,SCT045,0.00,VWS V14.01,2013-01-22 21:10:00,
2013-01-22 16:15:00,15.6,-3.4,30.37,West,265,2.0,14.0,42,0.00,,SCT045,0.00,VWS V14.01,2013-01-22 21:15:00,
2013-01-22 16:20:00,15.2,-3.8,30.36,SW,230,2.0,7.0,42,0.00,,SCT045,0.00,VWS V14.01,2013-01-22 21:20:00,
2013-01-22 16:25:00,15.4,-3.1,30.36,West,272,1.0,7.0,43,0.00,,SCT045,0.00,VWS V14.01,2013-01-22 21:25:00,
2013-01-22 16:30:00,15.7,-2.8,30.36,WNW,301,0.0,11.0,43,0.00,,SCT045,0.00,VWS V14.01,2013-01-22 21:30:00,
2013-01-22 16:31:00,15.7,-2.8,30.36,SSW,213,1.0,11.0,43,0.00,,SCT045,0.00,VWS V14.01,2013-01-22 21:31:00,
2013-01-22 16:37:00,15.7,-2.8,30.36,West,275,0.0,5.0,43,0.00,,SCT045,0.00,VWS V14.01,2013-01-22 21:37:00,
2013-01-22 16:42:00,15.4,-3.1,30.36,SW,234,2.0,6.0,43,0.00,,SCT045,0.00,VWS V14.01,2013-01-22 21:42:00,
2013-01-22 16:45:00,13.6,-3.3,30.38,WNW,299,2.0,9.0,46,0.00,,OVC100,0.00,VWS V14.01,2013-01-22 21:45:00,
2013-01-22 16:47:00,15.2,-2.8,30.37,WSW,254,1.0,7.0,44,0.00,,SCT045,0.00,VWS V14.01,2013-01-22 21:47:00,
2013-01-22 16:52:00,15.2,-2.8,30.37,West,267,3.0,6.0,44,0.00,,SCT045,0.00,VWS V14.01,2013-01-22 21:52:00,
2013-01-22 16:57:00,15.1,-3.4,30.37,West,278,1.0,6.0,43,0.00,,SCT045,0.00,VWS V14.01,2013-01-22 21:57:00,
2013-01-22 17:00:00,13.5,-3.4,30.38,SW,217,0.0,2.0,46,0.00,,OVC100,0.00,VWS V14.01,2013-01-22 22:00:00,
2013-01-22 17:02:00,14.9,-3.1,30.37,West,268,6.0,11.0,44,0.00,,FEW039,0.00,VWS V14.01,2013-01-22 22:02:00,
2013-01-22 17:07:00,14.8,-3.6,30.37,West,267,1.0,8.0,43,0.00,,FEW039,0.00,VWS V14.01,2013-01-22 22:07:00,
2013-01-22 17:12:00,14.6,-3.3,30.36,West,261,0.0,8.0,44,0.00,,FEW039,0.00,VWS V14.01,2013-01-22 22:12:00,
2013-01-22 17:15:00,13.3,-3.6,30.38,West,278,0.0,3.0,46,0.00,,OVC100,0.00,VWS V14.01,2013-01-22 22:15:00,
2013-01-22 17:18:00,14.3,-3.6,30.37,West,280,0.0,8.0,44,0.00,,FEW039,0.00,VWS V14.01,2013-01-22 22:18:00,
2013-01-22 17:23:00,14.1,-3.3,30.37,WSW,248,2.0,8.0,45,0.00,,FEW039,0.00,VWS V14.01,2013-01-22 22:23:00,
2013-01-22 17:28:00,14.0,-3.4,30.37,WSW,241,3.0,11.0,45,0.00,,FEW039,0.00,VWS V14.01,2013-01-22 22:28:00,
2013-01-22 17:30:00,13.3,-3.2,30.38,West,263,1.0,3.0,47,0.00,,OVC100,0.00,VWS V14.01,2013-01-22 22:30:00,
2013-01-22 17:33:00,13.8,-3.1,30.37,WSW,241,3.0,11.0,46,0.00,,FEW039,0.00,VWS V14.01,2013-01-22 22:33:00,
2013-01-22 17:38:00,13.8,-3.1,30.37,West,281,2.0,5.0,46,0.00,,FEW039,0.00,VWS V14.01,2013-01-22 22:38:00,
2013-01-22 17:43:00,13.6,-3.3,30.37,WSW,240,0.0,9.0,46,0.00,,FEW039,0.00,VWS V14.01,2013-01-22 22:43:00,
2013-01-22 17:45:00,13.1,-3.3,30.38,WNW,285,0.0,7.0,47,0.00,,OVC100,0.00,VWS V14.01,2013-01-22 22:45:00,
2013-01-22 17:48:00,13.5,-3.4,30.38,WNW,295,0.0,6.0,46,0.00,,FEW039,0.00,VWS V14.01,2013-01-22 22:48:00,
2013-01-22 17:53:00,13.5,-3.4,30.38,West,270,0.0,4.0,46,0.00,,FEW039,0.00,VWS V14.01,2013-01-22 22:53:00,
2013-01-22 17:58:00,13.5,-3.4,30.38,West,275,0.0,2.0,46,0.00,,FEW039,0.00,VWS V14.01,2013-01-22 22:58:00,
2013-01-22 18:00:00,12.8,-3.6,30.38,West,260,1.0,7.0,47,0.00,,OVC100,0.00,VWS V14.01,2013-01-22 23:00:00,
2013-01-22 18:03:00,13.5,-3.4,30.38,SW,232,0.0,6.0,46,0.00,,CLR,0.00,VWS V14.01,2013-01-22 23:03:00,
2013-01-22 18:08:00,13.3,-3.6,30.38,West,261,0.0,7.0,46,0.00,,CLR,0.00,VWS V14.01,2013-01-22 23:08:00,
2013-01-22 18:13:00,13.3,-3.6,30.38,WSW,246,0.0,7.0,46,0.00,,CLR,0.00,VWS V14.01,2013-01-22 23:13:00,
2013-01-22 18:15:00,12.8,-3.2,30.38,WNW,284,0.0,3.0,48,0.00,,OVC100,0.00,VWS V14.01,2013-01-22 23:15:00,
2013-01-22 18:18:00,13.3,-3.6,30.38,WNW,296,1.0,3.0,46,0.00,,CLR,0.00,VWS V14.01,2013-01-22 23:18:00,
2013-01-22 18:23:00,13.3,-3.6,30.38,WNW,284,1.0,3.0,46,0.00,,CLR,0.00,VWS V14.01,2013-01-22 23:23:00,
2013-01-22 18:28:00,13.3,-3.2,30.38,West,267,1.0,2.0,47,0.00,,CLR,0.00,VWS V14.01,2013-01-22 23:28:00,
2013-01-22 18:30:00,12.6,-3.8,30.38,WSW,243,1.0,6.0,47,0.00,,OVC100,0.00,VWS V14.01,2013-01-22 23:30:00,
2013-01-22 18:33:00,13.3,-3.2,30.38,WNW,288,0.0,5.0,47,0.00,,CLR,0.00,VWS V14.01,2013-01-22 23:33:00,
2013-01-22 18:38:00,13.1,-3.3,30.38,WNW,282,0.0,5.0,47,0.00,,CLR,0.00,VWS V14.01,2013-01-22 23:38:00,
2013-01-22 18:43:00,13.1,-3.3,30.38,WNW,284,2.0,7.0,47,0.00,,CLR,0.00,VWS V14.01,2013-01-22 23:43:00,
2013-01-22 18:45:00,12.8,-3.2,30.38,WNW,302,0.0,2.0,48,0.00,,OVC100,0.00,VWS V14.01,2013-01-22 23:45:00,
2013-01-22 18:48:00,12.9,-3.5,30.38,WNW,285,0.0,7.0,47,0.00,,CLR,0.00,VWS V14.01,2013-01-22 23:48:00,
2013-01-22 18:53:00,12.9,-3.1,30.38,WNW,289,0.0,5.0,48,0.00,,CLR,0.00,VWS V14.01,2013-01-22 23:53:00,
2013-01-22 18:58:00,12.9,-3.5,30.38,WSW,258,3.0,7.0,47,0.00,,CLR,0.00,VWS V14.01,2013-01-22 23:58:00,
2013-01-22 19:00:00,12.9,-3.1,30.38,West,270,0.0,2.0,48,0.00,,OVC100,0.00,VWS V14.01,2013-01-23 00:00:00,
2013-01-22 19:04:00,12.9,-3.5,30.38,WNW,291,0.0,7.0,47,0.00,,CLR,0.00,VWS V14.01,2013-01-23 00:04:00,
2013-01-22 19:09:00,12.8,-3.6,30.39,West,267,0.0,7.0,47,0.00,,CLR,0.00,VWS V14.01,2013-01-23 00:09:00,
2013-01-22 19:14:00,12.8,-3.2,30.38,West,270,0.0,3.0,48,0.00,,CLR,0.00,VWS V14.01,2013-01-23 00:14:00,
2013-01-22 19:15:00,12.9,-3.1,30.38,West,275,1.0,6.0,48,0.00,,OVC100,0.00,VWS V14.01,2013-01-23 00:15:00,
2013-01-22 19:19:00,12.8,-3.2,30.38,WNW,302,1.0,6.0,48,0.00,,CLR,0.00,VWS V14.01,2013-01-23 00:19:00,
2013-01-22 19:24:00,12.6,-3.8,30.38,West,278,0.0,6.0,47,0.00,,CLR,0.00,VWS V14.01,2013-01-23 00:24:00,
2013-01-22 19:29:00,12.6,-3.8,30.38,NW,304,0.0,6.0,47,0.00,,CLR,0.00,VWS V14.01,2013-01-23 00:29:00,
2013-01-22 19:30:00,12.9,-2.7,30.38,West,281,1.0,6.0,49,0.00,,OVC100,0.00,VWS V14.01,2013-01-23 00:30:00,
2013-01-22 19:34:00,12.6,-3.8,30.38,WSW,258,0.0,6.0,47,0.00,,CLR,0.00,VWS V14.01,2013-01-23 00:34:00,
2013-01-22 19:39:00,12.6,-3.8,30.38,NW,305,0.0,5.0,47,0.00,,CLR,0.00,VWS V14.01,2013-01-23 00:39:00,
2013-01-22 19:44:00,12.8,-3.2,30.38,WNW,302,0.0,2.0,48,0.00,,CLR,0.00,VWS V14.01,2013-01-23 00:44:00,
2013-01-22 19:45:00,12.9,-2.7,30.38,NW,322,0.0,7.0,49,0.00,,OVC100,0.00,VWS V14.01,2013-01-23 00:45:00,
2013-01-22 19:49:00,12.8,-3.2,30.38,WNW,291,0.0,3.0,48,0.00,,CLR,0.00,VWS V14.01,2013-01-23 00:49:00,
2013-01-22 19:54:00,12.9,-3.1,30.38,WNW,284,0.0,2.0,48,0.00,,CLR,0.00,VWS V14.01,2013-01-23 00:54:00,
2013-01-22 19:59:00,12.9,-3.1,30.38,WNW,284,1.0,2.0,48,0.00,,CLR,0.00,VWS V14.01,2013-01-23 00:59:00,
2013-01-22 20:00:00,12.9,-2.2,30.37,West,263,0.0,5.0,50,0.00,,OVC100,0.00,VWS V14.01,2013-01-23 01:00:00,
2013-01-22 20:04:00,12.9,-3.1,30.38,NW,309,1.0,4.0,48,0.00,,CLR,0.00,VWS V14.01,2013-01-23 01:04:00,
2013-01-22 20:09:00,12.9,-3.1,30.38,WNW,301,6.0,6.0,48,0.00,,CLR,0.00,VWS V14.01,2013-01-23 01:09:00,
2013-01-22 20:14:00,12.9,-3.1,30.38,WNW,284,0.0,6.0,48,0.00,,CLR,0.00,VWS V14.01,2013-01-23 01:14:00,
2013-01-22 20:15:00,12.9,-2.2,30.37,NW,319,0.0,3.0,50,0.00,,OVC100,0.00,VWS V14.01,2013-01-23 01:15:00,
2013-01-22 20:19:00,13.1,-2.5,30.38,WNW,288,0.0,3.0,49,0.00,,CLR,0.00,VWS V14.01,2013-01-23 01:19:00,
2013-01-22 20:24:00,12.9,-3.1,30.38,WNW,296,0.0,8.0,48,0.00,,CLR,0.00,VWS V14.01,2013-01-23 01:24:00,
2013-01-22 20:29:00,12.9,-2.7,30.38,WNW,285,0.0,6.0,49,0.00,,CLR,0.00,VWS V14.01,2013-01-23 01:29:00,
2013-01-22 20:30:00,12.4,-2.3,30.38,NW,319,2.0,8.0,51,0.00,,OVC100,0.00,VWS V14.01,2013-01-23 01:30:00,
2013-01-22 20:34:00,13.1,-2.0,30.38,WNW,296,1.0,5.0,50,0.00,,CLR,0.00,VWS V14.01,2013-01-23 01:34:00,
2013-01-22 20:39:00,12.9,-2.7,30.38,WNW,294,0.0,7.0,49,0.00,,CLR,0.00,VWS V14.01,2013-01-23 01:39:00,
2013-01-22 20:44:00,12.9,-2.7,30.38,NW,322,0.0,7.0,49,0.00,,CLR,0.00,VWS V14.01,2013-01-23 01:44:00,
2013-01-22 20:45:00,12.3,-2.0,30.38,West,281,0.0,6.0,52,0.00,,OVC100,0.00,VWS V14.01,2013-01-23 01:45:00,
2013-01-22 20:49:00,12.9,-2.7,30.38,WNW,292,2.0,5.0,49,0.00,,CLR,0.00,VWS V14.01,2013-01-23 01:49:00,
2013-01-22 20:54:00,13.1,-2.0,30.38,West,281,0.0,3.0,50,0.00,,CLR,0.00,VWS V14.01,2013-01-23 01:54:00,
2013-01-22 20:59:00,12.9,-2.2,30.37,West,263,1.0,5.0,50,0.00,,CLR,0.00,VWS V14.01,2013-01-23 01:59:00,
2013-01-22 21:00:00,12.4,-1.9,30.38,WNW,289,1.0,2.0,52,0.00,,OVC100,0.00,VWS V14.01,2013-01-23 02:00:00,
2013-01-22 21:04:00,12.9,-2.2,30.37,WNW,296,2.0,7.0,50,0.00,,CLR,0.00,VWS V14.01,2013-01-23 02:04:00,
2013-01-22 21:09:00,12.9,-2.2,30.37,NW,319,0.0,7.0,50,0.00,,CLR,0.00,VWS V14.01,2013-01-23 02:09:00,
2013-01-22 21:14:00,12.9,-2.2,30.37,NW,319,0.0,3.0,50,0.00,,CLR,0.00,VWS V14.01,2013-01-23 02:14:00,
2013-01-22 21:15:00,12.6,-1.7,30.38,WNW,284,0.0,0.0,52,0.00,,OVC100,0.00,VWS V14.01,2013-01-23 02:15:00,
2013-01-22 21:20:00,12.8,-1.9,30.37,WNW,289,0.0,3.0,51,0.00,,CLR,0.00,VWS V14.01,2013-01-23 02:20:00,
2013-01-22 21:25:00,12.6,-2.1,30.38,WNW,284,5.0,8.0,51,0.00,,CLR,0.00,VWS V14.01,2013-01-23 02:25:00,
2013-01-22 21:30:00,12.4,-2.3,30.38,NW,319,2.0,8.0,51,0.00,,CLR,0.00,VWS V14.01,2013-01-23 02:30:00,
2013-01-22 21:35:00,12.4,-2.3,30.38,SW,226,0.0,6.0,51,0.00,,CLR,0.00,VWS V14.01,2013-01-23 02:35:00,
2013-01-22 21:40:00,12.3,-2.4,30.38,WNW,298,0.0,6.0,51,0.00,,CLR,0.00,VWS V14.01,2013-01-23 02:40:00,
2013-01-22 21:45:00,12.3,-2.0,30.38,West,281,0.0,6.0,52,0.00,,CLR,0.00,VWS V14.01,2013-01-23 02:45:00,
2013-01-22 21:50:00,12.3,-2.0,30.38,West,261,0.0,2.0,52,0.00,,CLR,0.00,VWS V14.01,2013-01-23 02:50:00,
2013-01-22 21:55:00,12.4,-1.9,30.38,West,277,2.0,2.0,52,0.00,,CLR,0.00,VWS V14.01,2013-01-23 02:55:00,
2013-01-22 22:00:00,12.4,-1.9,30.38,WNW,289,1.0,2.0,52,0.00,,CLR,0.00,VWS V14.01,2013-01-23 03:00:00,
2013-01-22 22:05:00,12.6,-1.7,30.38,WNW,284,0.0,2.0,52,0.00,,CLR,0.00,VWS V14.01,2013-01-23 03:05:00,
2013-01-22 22:10:00,12.6,-1.7,30.38,WNW,284,0.0,1.0,52,0.00,,CLR,0.00,VWS V14.01,2013-01-23 03:10:00,
2013-01-22 22:15:00,12.6,-1.7,30.38,WNW,284,0.0,0.0,52,0.00,,CLR,0.00,VWS V14.01,2013-01-23 03:15:00,
2013-01-22 22:20:00,12.6,-1.3,30.38,WNW,282,0.0,2.0,53,0.00,,CLR,0.00,VWS V14.01,2013-01-23 03:20:00,
2013-01-22 22:25:00,12.6,-1.3,30.39,West,264,0.0,2.0,53,0.00,,CLR,0.00,VWS V14.01,2013-01-23 03:25:00,
2013-01-22 22:30:00,12.6,-1.3,30.39,West,272,2.0,2.0,53,0.00,,CLR,0.00,VWS V14.01,2013-01-23 03:30:00,
2013-01-22 22:35:00,12.4,-1.5,30.39,West,277,0.0,5.0,53,0.00,,CLR,0.00,VWS V14.01,2013-01-23 03:35:00,
2013-01-22 22:40:00,12.4,-1.5,30.39,WNW,301,0.0,3.0,53,0.00,,CLR,0.00,VWS V14.01,2013-01-23 03:40:00,
2013-01-22 22:45:00,12.4,-1.5,30.39,West,278,1.0,3.0,53,0.00,,CLR,0.00,VWS V14.01,2013-01-23 03:45:00,
2013-01-22 22:50:00,12.4,-1.5,30.39,West,274,0.0,3.0,53,0.00,,CLR,0.00,VWS V14.01,2013-01-23 03:50:00,
2013-01-22 22:55:00,12.4,-1.5,30.39,West,264,0.0,2.0,53,0.00,,CLR,0.00,VWS V14.01,2013-01-23 03:55:00,
2013-01-22 23:00:00,12.4,-1.5,30.39,West,281,0.0,5.0,53,0.00,,CLR,0.00,VWS V14.01,2013-01-23 04:00:00,
2013-01-22 23:05:00,12.4,-1.5,30.39,West,281,0.0,5.0,53,0.00,,FEW110,0.00,VWS V14.01,2013-01-23 04:05:00,
2013-01-22 23:10:00,12.4,-1.5,30.39,WSW,237,3.0,3.0,53,0.00,,FEW110,0.00,VWS V14.01,2013-01-23 04:10:00,
2013-01-22 23:15:00,12.3,-1.6,30.38,West,264,0.0,3.0,53,0.00,,FEW110,0.00,VWS V14.01,2013-01-23 04:15:00,
2013-01-22 23:20:00,12.3,-1.6,30.39,West,263,1.0,2.0,53,0.00,,FEW110,0.00,VWS V14.01,2013-01-23 04:20:00,
2013-01-22 23:25:00,12.3,-1.2,30.38,WSW,258,0.0,2.0,54,0.00,,FEW110,0.00,VWS V14.01,2013-01-23 04:25:00,
2013-01-22 23:30:00,12.3,-1.2,30.38,WSW,254,1.0,3.0,54,0.00,,FEW110,0.00,VWS V14.01,2013-01-23 04:30:00,
2013-01-22 23:35:00,12.1,-1.4,30.39,WSW,250,0.0,3.0,54,0.00,,FEW110,0.00,VWS V14.01,2013-01-23 04:35:00,
2013-01-22 23:40:00,12.3,-0.8,30.38,WSW,250,0.0,1.0,55,0.00,,FEW110,0.00,VWS V14.01,2013-01-23 04:40:00,
2013-01-22 23:45:00,12.3,-0.8,30.38,WSW,250,0.0,1.0,55,0.00,,FEW110,0.00,VWS V14.01,2013-01-23 04:45:00,
2013-01-22 23:50:00,12.3,-0.8,30.38,WSW,250,0.0,0.0,55,0.00,,FEW110,0.00,VWS V14.01,2013-01-23 04:50:00,
2013-01-22 23:55:00,12.1,-1.0,30.38,WSW,246,0.0,1.0,55,0.00,,FEW110,0.00,VWS V14.01,2013-01-23 04:55:00,